Time;durP1;ratioP1;P1;durP2;ratioP2;P2;SDS_P1;SDS_P2;PMS_P1;PMS_P2;Temp;Humidity;BMP_temperature;BMP_pressure;BME280_temperature;BME280_humidity;BME280_pressure;Samples;Min_cycle;Max_cycle;Signal;HPM_P1;HPM_P2
2022/03/07 00:02:14;;;;;;;8.20;5.10;;;;;;;;;;5066345;27;98878;-69
2022/03/07 00:04:41;;;;;;;11.75;5.68;;;;;;;;;;5069884;27;99965;-69
2022/03/07 00:07:07;;;;;;;5.78;5.22;;;;;;;;;;5058872;27;98569;-69
2022/03/07 00:09:33;;;;;;;9.25;5.32;;;;;;;;;;5068184;27;100022;-69
2022/03/07 00:12:00;;;;;;;7.00;4.90;;;;;;;;;;5059169;27;100090;-69
2022/03/07 00:14:26;;;;;;;7.00;5.18;;;;;;;;;;5060292;27;97902;-69
2022/03/07 00:16:52;;;;;;;6.65;5.47;;;;;;;;;;5060534;27;99329;-69
2022/03/07 00:19:19;;;;;;;6.70;5.57;;;;;;;;;;5058168;27;99982;-69
2022/03/07 00:21:45;;;;;;;13.60;5.82;;;;;;;;;;5059113;27;100833;-69
2022/03/07 00:24:12;;;;;;;8.38;5.93;;;;;;;;;;5059999;27;100678;-69
2022/03/07 00:26:38;;;;;;;7.45;6.07;;;;;;;;;;5057282;27;100604;-69
2022/03/07 00:29:04;;;;;;;11.55;6.10;;;;;;;;;;5057582;27;100361;-69
2022/03/07 00:31:31;;;;;;;10.07;5.75;;;;;;;;;;5058628;27;100614;-69
2022/03/07 00:33:57;;;;;;;12.43;6.38;;;;;;;;;;5058556;27;99360;-69
2022/03/07 00:36:25;;;;;;;8.90;5.82;;;;;;;;;;5046796;27;100134;-69
2022/03/07 00:38:52;;;;;;;7.03;6.32;;;;;;;;;;5063082;27;99420;-69
2022/03/07 00:41:19;;;;;;;6.25;5.63;;;;;;;;;;5059234;27;100559;-69
2022/03/07 00:43:45;;;;;;;6.25;5.70;;;;;;;;;;5058174;27;101093;-69
2022/03/07 00:46:11;;;;;;;7.32;5.47;;;;;;;;;;5061489;27;101486;-69
2022/03/07 00:48:38;;;;;;;7.47;5.57;;;;;;;;;;5061210;27;100412;-69
2022/03/07 00:51:04;;;;;;;6.40;5.80;;;;;;;;;;5057325;27;100286;-70
2022/03/07 00:53:31;;;;;;;8.80;5.38;;;;;;;;;;5063007;27;98649;-68
2022/03/07 00:55:57;;;;;;;11.57;6.57;;;;;;;;;;5037530;27;101461;-69
2022/03/07 00:58:29;;;;;;;6.93;6.28;;;;;;;;;;5058320;27;101587;-69
2022/03/07 01:00:56;;;;;;;5.93;5.43;;;;;;;;;;5042148;27;98627;-69
2022/03/07 01:03:22;;;;;;;8.20;5.78;;;;;;;;;;5044044;27;101760;-69
2022/03/07 01:05:49;;;;;;;7.95;6.13;;;;;;;;;;5053926;27;99456;-70
2022/03/07 01:08:15;;;;;;;8.98;5.65;;;;;;;;;;5063174;27;99419;-69
2022/03/07 01:10:42;;;;;;;6.25;5.68;;;;;;;;;;5058533;27;100794;-69
2022/03/07 01:13:09;;;;;;;6.50;5.63;;;;;;;;;;5059247;27;99058;-69
2022/03/07 01:15:35;;;;;;;6.97;6.28;;;;;;;;;;5057178;27;100539;-69
2022/03/07 01:18:04;;;;;;;10.15;6.65;;;;;;;;;;5057488;27;99614;-69
2022/03/07 01:20:30;;;;;;;7.88;5.53;;;;;;;;;;5060465;27;98918;-69
2022/03/07 01:22:57;;;;;;;8.60;6.72;;;;;;;;;;5057581;27;98830;-69
2022/03/07 01:25:24;;;;;;;8.48;5.53;;;;;;;;;;5060578;27;99809;-69
2022/03/07 01:27:51;;;;;;;7.00;5.68;;;;;;;;;;5042389;27;99711;-69
2022/03/07 01:30:20;;;;;;;9.15;6.78;;;;;;;;;;5061416;27;99552;-71
2022/03/07 01:32:46;;;;;;;16.05;6.40;;;;;;;;;;5057545;27;99629;-69
2022/03/07 01:35:13;;;;;;;13.30;6.35;;;;;;;;;;5055862;27;100055;-70
2022/03/07 01:37:39;;;;;;;10.80;6.82;;;;;;;;;;5041883;27;101478;-69
2022/03/07 01:40:06;;;;;;;6.82;6.22;;;;;;;;;;5039076;27;99972;-70
2022/03/07 01:42:33;;;;;;;6.68;5.97;;;;;;;;;;5060780;27;99015;-69
2022/03/07 01:45:08;;;;;;;9.18;5.80;;;;;;;;;;5058807;27;101152;-70
2022/03/07 01:47:34;;;;;;;6.82;6.22;;;;;;;;;;5056300;27;99504;-69
2022/03/07 01:50:00;;;;;;;8.63;6.85;;;;;;;;;;5058858;27;99830;-70
2022/03/07 01:52:28;;;;;;;10.98;7.25;;;;;;;;;;5043751;27;100641;-70
2022/03/07 01:54:55;;;;;;;9.90;6.72;;;;;;;;;;5058536;27;100595;-70
2022/03/07 01:57:22;;;;;;;8.70;6.15;;;;;;;;;;5039307;27;101895;-70
2022/03/07 01:59:48;;;;;;;8.05;6.25;;;;;;;;;;5040928;27;101307;-69
2022/03/07 02:02:15;;;;;;;6.70;6.00;;;;;;;;;;5042291;27;102689;-68
2022/03/07 02:04:43;;;;;;;8.40;6.35;;;;;;;;;;5040265;27;99364;-69
2022/03/07 02:07:11;;;;;;;7.57;6.13;;;;;;;;;;5039719;27;99108;-69
2022/03/07 02:09:37;;;;;;;7.40;6.72;;;;;;;;;;5040336;27;102307;-69
2022/03/07 02:12:04;;;;;;;7.82;6.90;;;;;;;;;;5040121;27;100022;-69
2022/03/07 02:14:34;;;;;;;8.52;6.20;;;;;;;;;;5062028;27;99890;-69
2022/03/07 02:17:01;;;;;;;7.05;6.38;;;;;;;;;;5059074;27;98677;-69
2022/03/07 02:19:27;;;;;;;6.90;6.22;;;;;;;;;;5059486;27;99350;-69
2022/03/07 02:22:01;;;;;;;8.02;6.95;;;;;;;;;;5039640;27;102215;-69
2022/03/07 02:24:31;;;;;;;8.23;6.43;;;;;;;;;;5043186;27;101925;-69
2022/03/07 02:27:04;;;;;;;9.18;6.30;;;;;;;;;;5039284;27;98781;-69
2022/03/07 02:29:31;;;;;;;14.95;6.03;;;;;;;;;;5034880;27;100683;-69
2022/03/07 02:32:05;;;;;;;7.78;6.90;;;;;;;;;;5021643;27;102045;-69
2022/03/07 02:34:35;;;;;;;10.13;7.18;;;;;;;;;;5015612;28;100527;-69
2022/03/07 02:37:01;;;;;;;9.82;6.40;;;;;;;;;;5021752;28;100532;-69
2022/03/07 02:39:38;;;;;;;7.05;6.13;;;;;;;;;;5013064;28;99016;-69
2022/03/07 02:42:25;;;;;;;7.50;6.85;;;;;;;;;;5012314;28;100002;-69
2022/03/07 02:44:52;;;;;;;6.68;6.15;;;;;;;;;;5017812;28;100069;-69
2022/03/07 02:47:19;;;;;;;8.40;6.53;;;;;;;;;;5032092;27;98632;-69
2022/03/07 02:49:45;;;;;;;8.98;6.57;;;;;;;;;;5017153;28;101599;-69
2022/03/07 02:52:12;;;;;;;9.63;7.38;;;;;;;;;;5018290;28;99575;-70
2022/03/07 02:54:38;;;;;;;7.60;6.82;;;;;;;;;;5017893;28;98590;-69
2022/03/07 02:57:06;;;;;;;8.73;7.28;;;;;;;;;;5017818;28;100251;-69
2022/03/07 02:59:32;;;;;;;14.38;7.40;;;;;;;;;;5015791;28;100208;-69
2022/03/07 03:01:58;;;;;;;11.05;7.80;;;;;;;;;;5013464;28;99941;-69
2022/03/07 03:04:25;;;;;;;8.80;7.88;;;;;;;;;;5015211;27;100529;-69
2022/03/07 03:06:51;;;;;;;8.63;7.82;;;;;;;;;;5018721;28;99294;-69
2022/03/07 03:09:17;;;;;;;8.68;7.13;;;;;;;;;;5015737;27;102107;-69
2022/03/07 03:11:44;;;;;;;8.05;6.95;;;;;;;;;;5018269;27;99565;-69
2022/03/07 03:14:10;;;;;;;9.02;7.82;;;;;;;;;;5016192;28;101368;-69
2022/03/07 03:16:36;;;;;;;8.35;7.55;;;;;;;;;;5016378;28;100786;-70
2022/03/07 03:19:03;;;;;;;10.07;7.65;;;;;;;;;;5018222;28;100419;-69
2022/03/07 03:21:29;;;;;;;8.77;7.95;;;;;;;;;;5013273;27;100213;-69
2022/03/07 03:23:55;;;;;;;11.15;7.82;;;;;;;;;;5015511;28;100620;-69
2022/03/07 03:26:22;;;;;;;9.43;8.30;;;;;;;;;;5016827;28;98713;-69
2022/03/07 03:28:48;;;;;;;9.13;7.70;;;;;;;;;;5016149;28;99967;-69
2022/03/07 03:31:15;;;;;;;12.68;7.60;;;;;;;;;;5029617;27;99581;-69
2022/03/07 03:33:42;;;;;;;9.60;7.80;;;;;;;;;;5059325;27;100486;-69
2022/03/07 03:36:10;;;;;;;9.90;8.18;;;;;;;;;;5055820;27;99589;-69
2022/03/07 03:38:36;;;;;;;9.85;8.23;;;;;;;;;;5056302;27;101031;-69
2022/03/07 03:41:03;;;;;;;9.57;8.02;;;;;;;;;;5059554;27;98958;-69
2022/03/07 03:43:29;;;;;;;10.18;8.40;;;;;;;;;;5055820;27;100340;-69
2022/03/07 03:45:58;;;;;;;9.70;7.75;;;;;;;;;;5057240;27;100463;-69
2022/03/07 03:48:24;;;;;;;13.68;8.27;;;;;;;;;;5055995;27;99793;-68
2022/03/07 03:50:51;;;;;;;11.55;7.93;;;;;;;;;;5057525;27;100186;-69
2022/03/07 03:53:17;;;;;;;11.65;8.38;;;;;;;;;;5052147;27;99893;-69
2022/03/07 03:55:44;;;;;;;10.50;8.52;;;;;;;;;;5056271;27;102366;-69
2022/03/07 03:58:10;;;;;;;11.25;8.18;;;;;;;;;;5055669;27;101207;-69
2022/03/07 04:00:36;;;;;;;9.65;8.15;;;;;;;;;;5052815;27;100397;-69
2022/03/07 04:03:04;;;;;;;11.15;8.88;;;;;;;;;;5059373;27;99517;-69
2022/03/07 04:05:31;;;;;;;13.88;9.85;;;;;;;;;;5056149;27;99255;-69
2022/03/07 04:07:57;;;;;;;13.75;9.25;;;;;;;;;;5053875;27;99639;-69
2022/03/07 04:10:24;;;;;;;11.85;9.13;;;;;;;;;;5053984;27;100394;-69
2022/03/07 04:12:50;;;;;;;13.43;9.52;;;;;;;;;;5059320;27;101392;-69
2022/03/07 04:15:16;;;;;;;14.70;9.75;;;;;;;;;;5057213;27;100622;-69
2022/03/07 04:17:44;;;;;;;10.63;8.82;;;;;;;;;;5054591;27;100164;-69
2022/03/07 04:20:10;;;;;;;12.32;9.55;;;;;;;;;;5055146;27;99082;-69
2022/03/07 04:22:37;;;;;;;15.27;9.55;;;;;;;;;;5056174;27;100045;-68
2022/03/07 04:25:04;;;;;;;13.07;9.80;;;;;;;;;;5060238;27;100623;-69
2022/03/07 04:27:31;;;;;;;13.68;10.25;;;;;;;;;;5056859;27;100561;-69
2022/03/07 04:29:57;;;;;;;17.67;10.75;;;;;;;;;;5051831;27;100366;-69
2022/03/07 04:32:23;;;;;;;11.15;10.15;;;;;;;;;;5056316;27;100352;-69
2022/03/07 04:34:50;;;;;;;10.93;9.55;;;;;;;;;;5053124;27;99928;-69
2022/03/07 04:37:16;;;;;;;15.68;9.93;;;;;;;;;;5056565;27;100218;-68
2022/03/07 04:39:43;;;;;;;14.70;10.63;;;;;;;;;;5058772;27;100242;-69
2022/03/07 04:42:09;;;;;;;13.60;10.20;;;;;;;;;;5058013;27;100119;-69
2022/03/07 04:44:35;;;;;;;18.60;10.60;;;;;;;;;;5054338;27;99212;-69
2022/03/07 04:47:02;;;;;;;15.13;9.75;;;;;;;;;;5052310;27;99057;-69
2022/03/07 04:49:28;;;;;;;13.57;9.82;;;;;;;;;;5056950;27;99431;-69
2022/03/07 04:51:55;;;;;;;13.57;10.50;;;;;;;;;;5055979;27;99866;-69
2022/03/07 04:54:21;;;;;;;10.73;9.63;;;;;;;;;;5056095;27;100799;-69
2022/03/07 04:56:50;;;;;;;14.93;10.18;;;;;;;;;;5052008;27;100392;-69
2022/03/07 04:59:17;;;;;;;14.00;9.25;;;;;;;;;;5054775;27;99139;-69
2022/03/07 05:01:43;;;;;;;13.48;10.43;;;;;;;;;;5056660;27;102326;-69
2022/03/07 05:04:10;;;;;;;12.00;9.85;;;;;;;;;;5054016;27;100237;-69
2022/03/07 05:06:36;;;;;;;14.93;9.13;;;;;;;;;;5064978;27;98585;-69
2022/03/07 05:09:02;;;;;;;15.48;9.95;;;;;;;;;;5059331;27;99062;-69
2022/03/07 05:11:29;;;;;;;13.60;9.38;;;;;;;;;;5058656;27;100807;-69
2022/03/07 05:13:55;;;;;;;11.50;9.82;;;;;;;;;;5059260;27;100771;-69
2022/03/07 05:16:22;;;;;;;19.30;11.32;;;;;;;;;;5054152;27;101239;-69
2022/03/07 05:18:49;;;;;;;10.52;9.30;;;;;;;;;;5059511;27;99318;-69
2022/03/07 05:21:15;;;;;;;13.82;10.07;;;;;;;;;;5060775;27;99959;-68
2022/03/07 05:23:42;;;;;;;10.80;8.55;;;;;;;;;;5056262;27;100500;-69
2022/03/07 05:26:08;;;;;;;10.43;9.45;;;;;;;;;;5058291;27;100734;-69
2022/03/07 05:28:35;;;;;;;12.63;9.68;;;;;;;;;;5060424;27;99933;-69
2022/03/07 05:31:01;;;;;;;11.85;9.07;;;;;;;;;;5056750;27;99741;-69
2022/03/07 05:33:28;;;;;;;12.80;9.43;;;;;;;;;;5057316;27;100845;-69
2022/03/07 05:35:55;;;;;;;15.13;9.80;;;;;;;;;;5058506;27;100321;-69
2022/03/07 05:38:21;;;;;;;11.43;8.82;;;;;;;;;;5058336;27;98678;-68
2022/03/07 05:40:47;;;;;;;11.27;10.13;;;;;;;;;;5057839;27;100043;-69
2022/03/07 05:43:14;;;;;;;18.25;10.00;;;;;;;;;;5058755;27;99871;-69
2022/03/07 05:45:40;;;;;;;11.00;9.30;;;;;;;;;;5056555;27;101062;-68
2022/03/07 05:48:06;;;;;;;10.50;9.50;;;;;;;;;;5056046;27;100267;-68
2022/03/07 05:50:33;;;;;;;14.10;9.43;;;;;;;;;;5060115;27;99566;-69
2022/03/07 05:53:00;;;;;;;12.00;9.68;;;;;;;;;;5057597;27;101084;-69
2022/03/07 05:55:26;;;;;;;10.68;9.13;;;;;;;;;;5055133;27;99547;-69
2022/03/07 05:57:59;;;;;;;10.80;9.88;;;;;;;;;;5061263;27;98492;-69
2022/03/07 06:00:25;;;;;;;;;;;;;;;;;;5058355;27;100562;-68
2022/03/07 06:02:52;;;;;;;13.80;9.88;;;;;;;;;;5059560;27;131103;-68
2022/03/07 06:05:18;;;;;;;14.25;9.68;;;;;;;;;;5053525;27;101258;-68
2022/03/07 06:07:45;;;;;;;15.07;10.00;;;;;;;;;;5057409;27;100722;-69
2022/03/07 06:10:11;;;;;;;20.38;10.45;;;;;;;;;;5054898;27;101079;-69
2022/03/07 06:12:37;;;;;;;14.38;9.48;;;;;;;;;;5060633;27;100553;-69
2022/03/07 06:15:05;;;;;;;10.20;8.85;;;;;;;;;;5058081;27;100475;-69
2022/03/07 06:17:32;;;;;;;13.90;8.68;;;;;;;;;;5054290;27;98840;-69
2022/03/07 06:19:58;;;;;;;10.95;8.90;;;;;;;;;;5062982;27;100085;-69
2022/03/07 06:22:24;;;;;;;10.52;9.10;;;;;;;;;;5060925;27;99546;-69
2022/03/07 06:24:51;;;;;;;13.52;10.70;;;;;;;;;;5062603;27;98528;-69
2022/03/07 06:27:17;;;;;;;17.70;10.88;;;;;;;;;;5064427;27;99599;-69
2022/03/07 06:29:44;;;;;;;12.60;9.32;;;;;;;;;;5063347;27;102009;-69
2022/03/07 06:32:10;;;;;;;14.40;10.75;;;;;;;;;;5062227;27;99591;-69
2022/03/07 06:34:36;;;;;;;13.70;10.95;;;;;;;;;;5063818;27;99911;-69
2022/03/07 06:37:03;;;;;;;11.75;10.57;;;;;;;;;;5061068;27;98542;-69
2022/03/07 06:39:29;;;;;;;18.20;10.50;;;;;;;;;;5065048;27;99983;-69
2022/03/07 06:41:56;;;;;;;12.23;10.52;;;;;;;;;;5061935;27;100845;-68
2022/03/07 06:44:23;;;;;;;13.32;10.77;;;;;;;;;;5063745;27;102649;-68
2022/03/07 06:46:49;;;;;;;13.32;10.52;;;;;;;;;;5067284;27;100057;-68
2022/03/07 06:49:16;;;;;;;13.05;10.57;;;;;;;;;;5066613;27;100223;-68
2022/03/07 06:51:42;;;;;;;13.23;10.75;;;;;;;;;;5068679;27;98596;-69
2022/03/07 06:54:09;;;;;;;12.27;10.50;;;;;;;;;;5066357;27;99302;-69
2022/03/07 06:56:36;;;;;;;13.77;10.65;;;;;;;;;;5070730;27;100556;-69
2022/03/07 06:59:02;;;;;;;14.57;10.82;;;;;;;;;;5067074;27;99144;-69
2022/03/07 07:01:29;;;;;;;21.73;11.35;;;;;;;;;;5066800;27;100198;-69
2022/03/07 07:03:55;;;;;;;15.35;11.30;;;;;;;;;;5068317;27;98616;-69
2022/03/07 07:06:22;;;;;;;15.27;12.50;;;;;;;;;;5067689;27;99961;-69
2022/03/07 07:08:49;;;;;;;21.17;11.65;;;;;;;;;;5067677;27;100698;-69
2022/03/07 07:11:15;;;;;;;12.50;11.20;;;;;;;;;;5068749;27;97899;-68
2022/03/07 07:13:41;;;;;;;17.10;10.50;;;;;;;;;;5067374;27;100646;-69
2022/03/07 07:16:08;;;;;;;15.95;11.40;;;;;;;;;;5070058;27;99717;-69
2022/03/07 07:18:35;;;;;;;12.27;10.98;;;;;;;;;;5067435;27;100239;-69
2022/03/07 07:21:01;;;;;;;13.55;10.70;;;;;;;;;;5065959;27;99580;-69
2022/03/07 07:23:28;;;;;;;17.55;10.75;;;;;;;;;;5067948;27;98623;-70
2022/03/07 07:25:54;;;;;;;15.20;11.02;;;;;;;;;;5065188;27;100014;-68
2022/03/07 07:28:20;;;;;;;16.80;10.85;;;;;;;;;;5059489;27;100248;-68
2022/03/07 07:30:47;;;;;;;12.02;9.95;;;;;;;;;;5061965;27;98706;-74
2022/03/07 07:33:14;;;;;;;11.05;9.48;;;;;;;;;;5067408;27;99755;-69
2022/03/07 07:35:40;;;;;;;19.83;10.88;;;;;;;;;;5067437;27;99726;-69
2022/03/07 07:38:07;;;;;;;14.93;10.10;;;;;;;;;;5071168;27;98639;-70
2022/03/07 07:40:34;;;;;;;14.75;10.48;;;;;;;;;;5066580;27;99529;-70
2022/03/07 07:43:00;;;;;;;17.23;10.93;;;;;;;;;;5066968;27;100695;-69
2022/03/07 07:45:30;;;;;;;12.02;10.40;;;;;;;;;;5067271;27;101007;-70
2022/03/07 07:47:58;;;;;;;19.10;10.23;;;;;;;;;;5066956;27;100937;-69
2022/03/07 07:50:24;;;;;;;13.98;9.52;;;;;;;;;;5065951;27;99927;-69
2022/03/07 07:52:51;;;;;;;19.52;10.55;;;;;;;;;;5067299;27;99742;-69
2022/03/07 07:55:17;;;;;;;14.13;9.80;;;;;;;;;;5065773;27;99849;-69
2022/03/07 07:57:43;;;;;;;10.93;9.60;;;;;;;;;;5067013;27;98939;-69
2022/03/07 08:00:10;;;;;;;13.32;11.13;;;;;;;;;;5071924;27;99983;-69
2022/03/07 08:02:43;;;;;;;11.25;9.65;;;;;;;;;;5066072;27;99165;-69
2022/03/07 08:05:10;;;;;;;13.10;11.63;;;;;;;;;;5067731;27;99916;-69
2022/03/07 08:07:36;;;;;;;10.80;9.10;;;;;;;;;;5065717;27;101135;-69
2022/03/07 08:10:02;;;;;;;13.25;10.32;;;;;;;;;;5066813;27;99903;-70
2022/03/07 08:12:29;;;;;;;19.13;8.27;;;;;;;;;;5067424;27;100340;-70
2022/03/07 08:14:55;;;;;;;15.00;9.48;;;;;;;;;;5066973;27;100366;-70
2022/03/07 08:17:22;;;;;;;9.32;8.35;;;;;;;;;;5067303;27;99056;-70
2022/03/07 08:19:48;;;;;;;15.13;10.07;;;;;;;;;;5067723;27;100176;-69
2022/03/07 08:22:14;;;;;;;12.15;9.38;;;;;;;;;;5063717;27;100591;-70
2022/03/07 08:24:41;;;;;;;10.38;9.38;;;;;;;;;;5067386;27;100384;-70
2022/03/07 08:27:07;;;;;;;11.30;10.15;;;;;;;;;;5067166;27;100307;-70
2022/03/07 08:29:34;;;;;;;11.98;9.20;;;;;;;;;;5059471;27;98962;-69
2022/03/07 08:32:00;;;;;;;9.65;8.75;;;;;;;;;;5065527;27;100043;-69
2022/03/07 08:34:27;;;;;;;10.48;9.48;;;;;;;;;;5067383;27;100432;-69
2022/03/07 08:36:54;;;;;;;10.35;9.10;;;;;;;;;;5066495;27;98845;-70
2022/03/07 08:39:20;;;;;;;11.82;9.23;;;;;;;;;;5067485;27;99959;-69
2022/03/07 08:41:47;;;;;;;12.05;8.75;;;;;;;;;;5069633;27;99305;-69
2022/03/07 08:44:14;;;;;;;8.35;7.55;;;;;;;;;;5070299;27;98571;-68
2022/03/07 08:46:41;;;;;;;12.80;9.30;;;;;;;;;;5070392;27;100528;-68
2022/03/07 08:49:07;;;;;;;12.00;9.02;;;;;;;;;;5070385;27;97942;-69
2022/03/07 08:51:34;;;;;;;20.13;8.80;;;;;;;;;;5070261;27;98617;-70
2022/03/07 08:54:00;;;;;;;8.85;7.97;;;;;;;;;;5069159;27;100279;-69
2022/03/07 08:56:26;;;;;;;18.30;9.80;;;;;;;;;;5070485;27;99361;-70
2022/03/07 08:58:53;;;;;;;12.38;9.35;;;;;;;;;;5070763;27;100764;-70
2022/03/07 09:01:20;;;;;;;9.23;8.18;;;;;;;;;;5070279;27;100661;-68
2022/03/07 09:03:47;;;;;;;8.98;6.85;;;;;;;;;;5071143;27;98556;-69
2022/03/07 09:06:13;;;;;;;8.45;7.57;;;;;;;;;;5073172;27;98883;-69
2022/03/07 09:08:40;;;;;;;7.18;6.53;;;;;;;;;;5070178;27;98677;-69
2022/03/07 09:11:06;;;;;;;9.35;8.25;;;;;;;;;;5069982;27;100219;-69
2022/03/07 09:13:32;;;;;;;8.80;7.95;;;;;;;;;;5069874;27;99414;-69
2022/03/07 09:15:59;;;;;;;8.55;7.75;;;;;;;;;;5070506;27;98610;-69
2022/03/07 09:18:26;;;;;;;14.10;7.18;;;;;;;;;;5071010;27;99948;-70
2022/03/07 09:20:52;;;;;;;5.80;5.30;;;;;;;;;;5069531;27;101319;-70
2022/03/07 09:23:18;;;;;;;7.25;6.15;;;;;;;;;;5069688;27;98595;-70
2022/03/07 09:25:45;;;;;;;7.72;7.07;;;;;;;;;;5073810;27;100396;-70
2022/03/07 09:28:11;;;;;;;7.03;6.38;;;;;;;;;;5068637;27;98631;-70
2022/03/07 09:30:38;;;;;;;5.82;5.47;;;;;;;;;;5069048;27;99843;-70
2022/03/07 09:33:04;;;;;;;8.98;7.15;;;;;;;;;;5060636;27;100232;-70
2022/03/07 09:35:31;;;;;;;5.70;5.30;;;;;;;;;;5070496;27;98991;-69
2022/03/07 09:37:57;;;;;;;9.10;6.78;;;;;;;;;;5071056;27;100932;-69
2022/03/07 09:40:24;;;;;;;8.77;7.88;;;;;;;;;;5068924;27;99649;-69
2022/03/07 09:42:51;;;;;;;7.38;5.97;;;;;;;;;;5069561;27;99186;-69
2022/03/07 09:45:18;;;;;;;10.02;7.28;;;;;;;;;;5067858;27;100269;-68
2022/03/07 09:47:45;;;;;;;7.38;6.75;;;;;;;;;;5073053;27;100859;-70
2022/03/07 09:50:11;;;;;;;10.13;6.68;;;;;;;;;;5068708;27;100180;-70
2022/03/07 09:52:38;;;;;;;6.47;5.85;;;;;;;;;;5068807;27;100593;-69
2022/03/07 09:55:04;;;;;;;6.93;6.25;;;;;;;;;;5069347;27;98926;-69
2022/03/07 09:57:32;;;;;;;5.88;5.38;;;;;;;;;;5068685;27;99109;-69
2022/03/07 09:59:59;;;;;;;8.23;6.25;;;;;;;;;;5069944;27;100221;-69
2022/03/07 10:02:25;;;;;;;10.15;7.80;;;;;;;;;;5068554;27;98645;-69
2022/03/07 10:04:52;;;;;;;6.88;6.20;;;;;;;;;;5070164;27;99497;-69
2022/03/07 10:07:18;;;;;;;5.65;4.93;;;;;;;;;;5068752;27;100767;-69
2022/03/07 10:09:48;;;;;;;7.20;5.93;;;;;;;;;;5072063;27;100226;-69
2022/03/07 10:12:14;;;;;;;7.78;5.60;;;;;;;;;;5068465;27;100250;-69
2022/03/07 10:14:42;;;;;;;10.25;6.05;;;;;;;;;;5068673;27;98533;-69
2022/03/07 10:17:20;;;;;;;5.93;5.35;;;;;;;;;;5068370;27;99717;-69
2022/03/07 10:19:47;;;;;;;4.78;4.38;;;;;;;;;;5062254;27;100838;-69
2022/03/07 10:22:19;;;;;;;7.43;6.68;;;;;;;;;;5068544;27;98537;-69
2022/03/07 10:24:45;;;;;;;6.85;6.00;;;;;;;;;;5062085;27;100049;-67
2022/03/07 10:27:25;;;;;;;6.38;5.95;;;;;;;;;;5069517;27;99472;-67
2022/03/07 10:29:51;;;;;;;6.63;6.03;;;;;;;;;;5062358;27;99132;-67
2022/03/07 10:32:17;;;;;;;7.40;5.68;;;;;;;;;;5068070;27;98965;-68
2022/03/07 10:34:44;;;;;;;9.07;7.75;;;;;;;;;;5068976;27;99361;-68
2022/03/07 10:37:12;;;;;;;11.68;8.38;;;;;;;;;;5068998;27;100661;-68
2022/03/07 10:39:45;;;;;;;7.32;6.70;;;;;;;;;;5067617;27;100124;-68
2022/03/07 10:42:18;;;;;;;6.95;6.35;;;;;;;;;;5069425;27;98574;-68
2022/03/07 10:44:45;;;;;;;8.10;7.30;;;;;;;;;;5068344;27;102012;-68
2022/03/07 10:47:13;;;;;;;7.50;6.75;;;;;;;;;;5066557;27;99505;-67
2022/03/07 10:49:46;;;;;;;6.93;6.32;;;;;;;;;;5069182;27;98817;-67
2022/03/07 10:52:13;;;;;;;4.55;4.25;;;;;;;;;;5069042;27;100428;-67
2022/03/07 10:54:39;;;;;;;6.30;5.07;;;;;;;;;;5071405;27;100844;-67
2022/03/07 10:57:07;;;;;;;4.50;4.13;;;;;;;;;;5068925;27;99975;-68
2022/03/07 10:59:35;;;;;;;5.38;4.88;;;;;;;;;;5066463;27;100935;-68
2022/03/07 11:02:06;;;;;;;4.75;4.40;;;;;;;;;;5068263;27;98988;-68
2022/03/07 11:04:34;;;;;;;7.70;4.47;;;;;;;;;;5066829;27;99274;-67
2022/03/07 11:07:01;;;;;;;5.47;5.07;;;;;;;;;;5067043;27;99446;-68
2022/03/07 11:09:27;;;;;;;6.05;5.53;;;;;;;;;;5067688;27;98911;-68
2022/03/07 11:11:54;;;;;;;5.65;5.13;;;;;;;;;;5068715;27;100008;-68
2022/03/07 11:14:21;;;;;;;6.30;5.22;;;;;;;;;;5068075;27;100483;-68
2022/03/07 11:16:50;;;;;;;5.80;5.30;;;;;;;;;;5071679;27;97858;-67
2022/03/07 11:19:20;;;;;;;5.13;4.53;;;;;;;;;;5068170;27;100425;-67
2022/03/07 11:21:50;;;;;;;7.63;4.80;;;;;;;;;;5066259;27;98605;-67
2022/03/07 11:24:21;;;;;;;7.72;5.10;;;;;;;;;;5067460;27;99399;-67
2022/03/07 11:26:48;;;;;;;6.05;5.03;;;;;;;;;;5066041;27;99685;-68
2022/03/07 11:29:17;;;;;;;3.78;3.47;;;;;;;;;;5067691;27;98598;-68
2022/03/07 11:31:45;;;;;;;6.30;5.15;;;;;;;;;;5048715;27;100488;-68
2022/03/07 11:34:12;;;;;;;4.45;4.15;;;;;;;;;;5066785;27;100317;-68
2022/03/07 11:36:41;;;;;;;6.65;5.25;;;;;;;;;;5070132;27;100946;-67
2022/03/07 11:39:08;;;;;;;4.75;4.40;;;;;;;;;;5067459;27;100395;-67
2022/03/07 11:41:39;;;;;;;7.72;5.70;;;;;;;;;;5068617;27;98136;-67
2022/03/07 11:44:09;;;;;;;5.63;5.15;;;;;;;;;;5059802;27;98892;-67
2022/03/07 11:46:36;;;;;;;5.68;5.15;;;;;;;;;;5066518;27;101615;-68
2022/03/07 11:49:03;;;;;;;6.35;5.85;;;;;;;;;;5066692;27;99843;-68
2022/03/07 11:51:31;;;;;;;5.38;4.97;;;;;;;;;;5067747;27;99916;-68
2022/03/07 11:53:58;;;;;;;7.28;5.20;;;;;;;;;;5066629;27;99636;-68
2022/03/07 11:56:25;;;;;;;5.68;5.15;;;;;;;;;;5068020;27;99262;-67
2022/03/07 11:58:54;;;;;;;5.57;5.07;;;;;;;;;;5070253;27;100023;-66
2022/03/07 12:01:26;;;;;;;7.35;6.65;;;;;;;;;;5068651;27;98578;-67
2022/03/07 12:03:52;;;;;;;6.15;5.60;;;;;;;;;;5067216;27;100143;-67
2022/03/07 12:06:21;;;;;;;4.85;4.45;;;;;;;;;;5067196;27;99056;-67
2022/03/07 12:08:51;;;;;;;5.43;4.15;;;;;;;;;;5066538;27;99665;-68
2022/03/07 12:11:26;;;;;;;3.85;3.63;;;;;;;;;;5067919;27;100358;-69
2022/03/07 12:13:54;;;;;;;6.00;4.78;;;;;;;;;;5066885;27;100999;-69
2022/03/07 12:16:27;;;;;;;5.85;5.35;;;;;;;;;;5070835;27;98767;-68
2022/03/07 12:19:06;;;;;;;3.78;3.58;;;;;;;;;;5071218;27;100201;-68
2022/03/07 12:21:33;;;;;;;5.65;5.25;;;;;;;;;;5074066;27;99482;-69
2022/03/07 12:23:59;;;;;;;5.90;5.05;;;;;;;;;;5070256;27;100329;-69
2022/03/07 12:26:26;;;;;;;5.45;5.05;;;;;;;;;;5070932;27;100218;-69
2022/03/07 12:28:52;;;;;;;6.85;6.25;;;;;;;;;;5071037;27;98573;-69
2022/03/07 12:31:19;;;;;;;5.20;4.90;;;;;;;;;;5062424;27;99823;-69
2022/03/07 12:33:45;;;;;;;5.65;5.18;;;;;;;;;;5071049;27;100228;-68
2022/03/07 12:36:26;;;;;;;5.10;3.92;;;;;;;;;;5063731;27;98596;-69
2022/03/07 12:38:53;;;;;;;6.22;5.75;;;;;;;;;;5069852;27;99887;-68
2022/03/07 12:41:27;;;;;;;7.28;5.50;;;;;;;;;;5070789;27;100685;-68
2022/03/07 12:43:53;;;;;;;6.05;5.47;;;;;;;;;;5074472;27;99105;-70
2022/03/07 12:46:20;;;;;;;6.13;5.43;;;;;;;;;;5069637;27;100397;-68
2022/03/07 12:48:46;;;;;;;5.45;4.95;;;;;;;;;;5071073;27;98676;-68
2022/03/07 12:51:14;;;;;;;4.75;4.40;;;;;;;;;;5051094;27;99930;-68
2022/03/07 12:53:46;;;;;;;5.47;4.88;;;;;;;;;;5070821;27;100225;-69
2022/03/07 12:56:14;;;;;;;4.55;4.07;;;;;;;;;;5070539;27;97889;-68
2022/03/07 12:58:44;;;;;;;5.10;4.60;;;;;;;;;;5070329;27;100943;-68
2022/03/07 13:01:11;;;;;;;5.90;5.50;;;;;;;;;;5069886;27;100400;-68
2022/03/07 13:03:37;;;;;;;6.22;5.68;;;;;;;;;;5070376;27;100210;-68
2022/03/07 13:06:04;;;;;;;6.10;5.55;;;;;;;;;;5072213;27;100960;-68
2022/03/07 13:08:30;;;;;;;5.70;5.22;;;;;;;;;;5067548;27;99959;-69
2022/03/07 13:10:57;;;;;;;3.55;3.35;;;;;;;;;;5070534;27;99790;-69
2022/03/07 13:13:23;;;;;;;5.97;5.47;;;;;;;;;;5068236;27;100480;-68
2022/03/07 13:15:51;;;;;;;5.88;5.45;;;;;;;;;;5070527;27;98800;-69
2022/03/07 13:18:40;;;;;;;8.05;4.93;;;;;;;;;;5069364;27;99416;-69
2022/03/07 13:21:07;;;;;;;4.82;4.43;;;;;;;;;;5069478;27;100041;-69
2022/03/07 13:23:33;;;;;;;4.47;4.13;;;;;;;;;;5062829;27;99128;-70
2022/03/07 13:26:00;;;;;;;5.10;4.57;;;;;;;;;;5072791;27;100267;-70
2022/03/07 13:28:27;;;;;;;3.55;3.35;;;;;;;;;;5068792;27;99927;-69
2022/03/07 13:30:54;;;;;;;5.60;3.90;;;;;;;;;;5069132;27;100597;-69
2022/03/07 13:33:23;;;;;;;4.63;4.15;;;;;;;;;;5068580;27;99484;-69
2022/03/07 13:35:52;;;;;;;4.45;4.05;;;;;;;;;;5070420;27;98567;-68
2022/03/07 13:38:20;;;;;;;5.25;4.55;;;;;;;;;;5069743;27;100100;-69
2022/03/07 13:40:46;;;;;;;4.57;4.28;;;;;;;;;;5069235;27;100444;-69
2022/03/07 13:43:12;;;;;;;5.10;4.57;;;;;;;;;;5069486;27;98641;-69
2022/03/07 13:45:39;;;;;;;6.80;4.35;;;;;;;;;;5067267;27;99132;-67
2022/03/07 13:48:10;;;;;;;5.78;4.25;;;;;;;;;;5072608;27;100507;-67
2022/03/07 13:50:37;;;;;;;4.93;4.55;;;;;;;;;;5069759;27;100254;-68
2022/03/07 13:53:07;;;;;;;7.32;5.38;;;;;;;;;;5068076;27;100409;-67
2022/03/07 13:55:36;;;;;;;6.95;4.72;;;;;;;;;;5067830;27;99970;-67
2022/03/07 13:58:05;;;;;;;7.32;5.78;;;;;;;;;;5069764;27;100271;-67
2022/03/07 14:00:32;;;;;;;6.75;6.25;;;;;;;;;;5068792;27;100508;-67
2022/03/07 14:03:03;;;;;;;5.82;5.30;;;;;;;;;;5068441;27;98598;-67
2022/03/07 14:05:51;;;;;;;6.75;5.68;;;;;;;;;;5070305;27;100177;-67
2022/03/07 14:08:29;;;;;;;5.90;5.40;;;;;;;;;;5068329;27;99651;-67
2022/03/07 14:10:59;;;;;;;4.22;3.95;;;;;;;;;;5066319;27;97876;-66
2022/03/07 14:13:44;;;;;;;4.88;4.40;;;;;;;;;;5069291;27;102494;-67
2022/03/07 14:16:11;;;;;;;3.45;3.25;;;;;;;;;;5063603;27;98706;-67
2022/03/07 14:18:38;;;;;;;3.90;3.47;;;;;;;;;;5067092;27;99296;-67
2022/03/07 14:21:04;;;;;;;4.32;4.00;;;;;;;;;;5068861;27;100336;-67
2022/03/07 14:23:50;;;;;;;3.70;3.35;;;;;;;;;;5068953;27;98748;-67
2022/03/07 14:26:17;;;;;;;2.88;2.72;;;;;;;;;;5069507;27;99966;-67
2022/03/07 14:28:44;;;;;;;3.70;3.38;;;;;;;;;;5066206;27;100374;-68
2022/03/07 14:31:11;;;;;;;5.07;3.58;;;;;;;;;;5062197;27;100190;-67